createdAt,value
2022-08-20T00:01:06.763Z,24.45
2022-08-20T00:03:37.872Z,24.47
2022-08-20T00:06:08.361Z,24.47
2022-08-20T00:08:39.995Z,24.39
2022-08-20T00:11:12.282Z,24.19
2022-08-20T00:13:44.131Z,23.91
2022-08-20T00:16:12.576Z,24.19
2022-08-20T00:18:41.304Z,24.33
2022-08-20T00:21:11.981Z,24.28
2022-08-20T00:23:48.020Z,24.48
2022-08-20T00:26:17.245Z,24.68
2022-08-20T00:28:44.597Z,24.92
2022-08-20T00:31:15.185Z,24.87
2022-08-20T00:33:42.600Z,25.02
2022-08-20T00:36:10.929Z,25.08
2022-08-20T00:38:43.339Z,24.89
2022-08-20T00:41:18.136Z,25.03
2022-08-20T00:44:13.907Z,24.94
2022-08-20T00:46:42.155Z,25.09
2022-08-20T00:49:14.957Z,25.11
2022-08-20T00:51:45.865Z,25.15
2022-08-20T00:54:19.000Z,25.16
2022-08-20T00:56:49.728Z,25.05
2022-08-20T00:59:23.082Z,24.86
2022-08-20T01:01:52.680Z,24.83
2022-08-20T01:04:31.447Z,24.84
2022-08-20T01:07:00.256Z,24.92
2022-08-20T01:09:50.036Z,24.97
2022-08-20T01:12:17.260Z,25.09
2022-08-20T01:14:46.927Z,24.53
2022-08-20T01:17:20.229Z,23.95
2022-08-20T01:20:02.421Z,23.68
2022-08-20T01:23:12.663Z,23.52
2022-08-20T01:25:50.688Z,23.60
2022-08-20T01:28:28.361Z,23.73
2022-08-20T01:30:55.574Z,23.69
2022-08-20T01:33:24.190Z,23.59
2022-08-20T01:35:52.472Z,23.58
2022-08-20T01:38:21.329Z,23.68
2022-08-20T01:40:57.602Z,23.77
2022-08-20T01:43:25.007Z,23.65
2022-08-20T01:45:55.797Z,23.34
2022-08-20T01:48:23.187Z,23.20
2022-08-20T01:51:02.441Z,23.21
2022-08-20T01:53:35.696Z,23.10
2022-08-20T01:56:04.378Z,22.83
2022-08-20T01:58:33.685Z,22.83
2022-08-20T02:01:01.106Z,22.66
2022-08-20T02:03:28.480Z,22.66
2022-08-20T02:05:56.222Z,22.57
2022-08-20T02:08:23.378Z,22.39
2022-08-20T02:10:51.641Z,22.13
2022-08-20T02:13:18.994Z,22.06
2022-08-20T02:16:06.312Z,22.19
2022-08-20T02:18:33.304Z,22.16
2022-08-20T02:21:00.605Z,22.01
2022-08-20T02:23:27.640Z,22.02
2022-08-20T02:25:56.151Z,22.21
2022-08-20T02:28:23.462Z,22.33
2022-08-20T02:30:53.868Z,22.55
2022-08-20T02:33:24.073Z,22.84
2022-08-20T02:35:56.036Z,23.11
2022-08-20T02:38:23.383Z,23.18
2022-08-20T02:40:50.840Z,23.02
2022-08-20T02:43:20.245Z,22.76
2022-08-20T02:45:47.407Z,22.54
2022-08-20T02:48:21.068Z,22.38
2022-08-20T02:51:01.951Z,22.33
2022-08-20T02:53:31.587Z,22.36
2022-08-20T02:55:59.932Z,22.38
2022-08-20T02:58:27.661Z,22.31
2022-08-20T03:00:56.832Z,22.32
2022-08-20T03:03:25.270Z,22.23
2022-08-20T03:05:57.002Z,22.16
2022-08-20T03:08:25.040Z,22.07
2022-08-20T03:10:52.991Z,22.06
2022-08-20T03:13:22.013Z,22.30
2022-08-20T03:15:58.448Z,22.57
2022-08-20T03:18:30.688Z,22.69
2022-08-20T03:20:59.043Z,22.39
2022-08-20T03:23:26.728Z,22.32
2022-08-20T03:25:53.647Z,22.28
2022-08-20T03:28:21.556Z,22.05
2022-08-20T03:30:52.090Z,22.13
2022-08-20T03:33:20.452Z,22.35
2022-08-20T03:35:49.398Z,22.65
2022-08-20T03:38:17.937Z,22.91
2022-08-20T03:40:48.828Z,23.05
2022-08-20T03:43:17.468Z,23.14
2022-08-20T03:45:46.318Z,23.12
2022-08-20T03:48:16.798Z,23.26
2022-08-20T03:50:44.761Z,23.23
2022-08-20T03:53:14.817Z,23.30
2022-08-20T03:55:45.586Z,23.34
2022-08-20T03:58:20.994Z,22.98
2022-08-20T04:00:51.094Z,23.18
2022-08-20T04:03:18.423Z,23.20
2022-08-20T04:05:46.178Z,23.25
2022-08-20T04:08:20.468Z,22.59
2022-08-20T04:10:49.991Z,22.50
2022-08-20T04:13:20.255Z,22.41
2022-08-20T04:15:55.250Z,22.36
2022-08-20T04:18:25.805Z,22.35
2022-08-20T04:20:54.089Z,22.59
2022-08-20T04:23:22.315Z,22.58
2022-08-20T04:25:50.544Z,22.76
2022-08-20T04:28:30.167Z,22.98
2022-08-20T04:30:59.560Z,23.53
2022-08-20T04:33:35.336Z,23.94
2022-08-20T04:36:06.070Z,24.11
2022-08-20T04:38:50.226Z,24.29
2022-08-20T04:41:22.853Z,24.27
2022-08-20T04:43:54.189Z,23.93
2022-08-20T04:46:26.113Z,23.66
2022-08-20T04:48:53.673Z,23.57
2022-08-20T04:51:23.165Z,23.50
2022-08-20T04:53:54.066Z,23.69
2022-08-20T04:56:24.049Z,24.28
2022-08-20T04:58:55.542Z,24.43
2022-08-20T05:01:26.301Z,24.17
2022-08-20T05:03:55.202Z,24.14
2022-08-20T05:06:26.437Z,24.42
2022-08-20T05:08:55.983Z,24.69
2022-08-20T05:11:34.365Z,24.83
2022-08-20T05:14:09.827Z,24.79
2022-08-20T05:16:58.080Z,24.83
2022-08-20T05:19:25.476Z,24.90
2022-08-20T05:21:53.743Z,25.02
2022-08-20T05:24:24.320Z,25.30
2022-08-20T05:26:55.549Z,25.68
2022-08-20T05:29:27.691Z,25.30
2022-08-20T05:31:57.569Z,25.67
2022-08-20T05:34:26.458Z,26.04
2022-08-20T05:36:54.069Z,26.15
2022-08-20T05:39:23.410Z,26.13
2022-08-20T05:41:52.173Z,26.42
2022-08-20T05:44:19.956Z,26.57
2022-08-20T05:46:49.575Z,26.75
2022-08-20T05:49:21.890Z,27.08
2022-08-20T05:51:52.428Z,27.35
2022-08-20T05:54:21.656Z,27.72
2022-08-20T05:56:48.839Z,27.82
2022-08-20T05:59:23.559Z,27.73
2022-08-20T06:01:53.306Z,27.83
2022-08-20T06:04:25.111Z,27.91
2022-08-20T06:07:12.809Z,27.84
2022-08-20T06:09:44.258Z,28.01
2022-08-20T06:12:11.820Z,28.07
2022-08-20T06:14:42.401Z,27.85
2022-08-20T06:17:15.335Z,28.10
2022-08-20T06:19:44.684Z,28.40
2022-08-20T06:22:18.997Z,28.58
2022-08-20T06:24:50.212Z,28.66
2022-08-20T06:27:19.878Z,28.71
2022-08-20T06:29:48.959Z,28.53
2022-08-20T06:32:28.876Z,28.70
2022-08-20T06:35:05.953Z,28.81
2022-08-20T06:37:39.375Z,29.15
2022-08-20T06:40:10.570Z,28.82
2022-08-20T06:42:48.269Z,28.81
2022-08-20T06:45:24.737Z,28.94
2022-08-20T06:47:55.132Z,29.23
2022-08-20T06:50:29.703Z,29.48
2022-08-20T06:53:00.384Z,29.90
2022-08-20T06:55:29.170Z,29.96
2022-08-20T06:58:01.873Z,29.95
2022-08-20T07:00:34.358Z,30.30
2022-08-20T07:03:05.449Z,30.21
2022-08-20T07:05:36.706Z,30.13
2022-08-20T07:08:05.601Z,30.11
2022-08-20T07:10:36.576Z,30.06
2022-08-20T07:13:06.341Z,30.14
2022-08-20T07:15:36.886Z,30.32
2022-08-20T07:18:07.481Z,30.65
2022-08-20T07:20:37.362Z,30.60
2022-08-20T07:23:12.432Z,30.82
2022-08-20T07:25:45.088Z,31.01
2022-08-20T07:28:20.032Z,31.01
2022-08-20T07:31:13.364Z,30.86
2022-08-20T07:33:44.806Z,30.84
2022-08-20T07:36:15.146Z,31.06
2022-08-20T07:38:46.263Z,31.02
2022-08-20T07:41:15.687Z,31.19
2022-08-20T07:43:50.183Z,31.31
2022-08-20T07:46:22.326Z,31.54
2022-08-20T07:48:51.537Z,31.42
2022-08-20T07:51:22.838Z,31.50
2022-08-20T07:53:53.442Z,31.24
2022-08-20T07:56:25.346Z,31.50
2022-08-20T07:58:55.839Z,31.29
2022-08-20T08:01:26.771Z,31.36
2022-08-20T08:03:59.049Z,31.58
2022-08-20T08:06:48.963Z,31.92
2022-08-20T08:09:17.687Z,31.97
2022-08-20T08:11:52.865Z,32.20
2022-08-20T08:14:27.859Z,32.31
2022-08-20T08:17:06.725Z,32.42
2022-08-20T08:19:43.638Z,32.52
2022-08-20T08:22:15.670Z,32.39
2022-08-20T08:24:57.289Z,32.28
2022-08-20T08:27:25.748Z,32.45
2022-08-20T08:29:56.253Z,32.57
2022-08-20T08:32:25.161Z,32.58
2022-08-20T08:34:54.756Z,32.62
2022-08-20T08:37:23.158Z,32.40
2022-08-20T08:39:52.855Z,32.33
2022-08-20T08:42:45.249Z,32.21
2022-08-20T08:45:20.088Z,31.95
2022-08-20T08:47:49.019Z,31.50
2022-08-20T08:50:53.996Z,31.51
2022-08-20T08:53:28.575Z,31.82
2022-08-20T08:55:55.990Z,32.13
2022-08-20T08:58:24.976Z,32.29
2022-08-20T09:00:57.532Z,32.36
2022-08-20T09:03:35.677Z,32.21
2022-08-20T09:06:05.220Z,32.28
2022-08-20T09:08:49.348Z,31.92
2022-08-20T09:11:19.342Z,31.83
2022-08-20T09:13:47.559Z,32.02
2022-08-20T09:16:18.472Z,32.16
2022-08-20T09:18:46.425Z,32.45
2022-08-20T09:21:15.885Z,32.95
2022-08-20T09:23:44.240Z,32.82
2022-08-20T09:26:13.655Z,32.68
2022-08-20T09:28:41.638Z,32.51
2022-08-20T09:31:18.766Z,32.55
2022-08-20T09:33:48.815Z,32.75
2022-08-20T09:36:31.357Z,32.83
2022-08-20T09:38:59.717Z,32.96
2022-08-20T09:41:28.071Z,32.67
2022-08-20T09:43:57.422Z,32.30
2022-08-20T09:46:27.305Z,32.59
2022-08-20T09:48:56.673Z,32.98
2022-08-20T09:51:23.825Z,33.10
2022-08-20T09:53:53.687Z,32.81
2022-08-20T09:56:22.620Z,32.74
2022-08-20T09:59:01.057Z,32.84
2022-08-20T10:01:30.058Z,32.82
2022-08-20T10:03:59.390Z,32.55
2022-08-20T10:06:34.517Z,32.92
2022-08-20T10:09:04.957Z,33.08
2022-08-20T10:11:32.548Z,33.56
2022-08-20T10:13:59.741Z,33.90
2022-08-20T10:16:27.093Z,32.96
2022-08-20T10:18:55.323Z,32.79
2022-08-20T10:21:22.690Z,33.06
2022-08-20T10:23:52.570Z,32.92
2022-08-20T10:26:21.820Z,33.21
2022-08-20T10:28:48.984Z,33.48
2022-08-20T10:31:16.408Z,33.89
2022-08-20T10:33:54.379Z,34.07
2022-08-20T10:36:21.759Z,33.98
2022-08-20T10:38:50.522Z,33.88
2022-08-20T10:41:18.721Z,33.90
2022-08-20T10:43:47.459Z,34.18
2022-08-20T10:46:16.849Z,34.40
2022-08-20T10:48:44.534Z,34.53
2022-08-20T10:51:12.403Z,34.31
2022-08-20T10:53:41.358Z,34.55
2022-08-20T10:56:10.886Z,34.23
2022-08-20T10:58:43.820Z,34.48
2022-08-20T11:01:31.647Z,34.53
2022-08-20T11:04:01.162Z,34.35
2022-08-20T11:06:29.585Z,34.43
2022-08-20T11:08:57.300Z,34.87
2022-08-20T11:11:25.277Z,34.89
2022-08-20T11:13:52.428Z,34.96
2022-08-20T11:16:21.230Z,34.98
2022-08-20T11:18:54.197Z,34.83
2022-08-20T11:21:21.282Z,34.96
2022-08-20T11:23:48.250Z,35.07
2022-08-20T11:26:25.421Z,35.06
2022-08-20T11:28:52.917Z,34.63
2022-08-20T11:31:20.083Z,34.48
2022-08-20T11:33:47.165Z,34.74
2022-08-20T11:36:14.231Z,34.88
2022-08-20T11:38:41.426Z,34.95
2022-08-20T11:41:08.568Z,34.70
2022-08-20T11:43:37.938Z,34.76
2022-08-20T11:46:06.341Z,34.91
2022-08-20T11:48:33.731Z,34.84
2022-08-20T11:51:01.706Z,34.83
2022-08-20T11:53:31.017Z,34.59
2022-08-20T11:56:01.084Z,34.57
2022-08-20T11:58:29.128Z,34.68
2022-08-20T12:00:56.523Z,34.93
2022-08-20T12:03:30.875Z,35.06
2022-08-20T12:06:00.734Z,34.39
2022-08-20T12:08:29.450Z,34.04
2022-08-20T12:11:01.875Z,34.25
2022-08-20T12:13:47.368Z,34.19
2022-08-20T12:16:20.511Z,34.49
2022-08-20T12:18:48.305Z,34.53
2022-08-20T12:21:17.909Z,34.64
2022-08-20T12:23:46.878Z,34.91
2022-08-20T12:26:17.547Z,34.87
2022-08-20T12:28:45.259Z,35.08
2022-08-20T12:31:12.242Z,34.64
2022-08-20T12:33:40.760Z,34.82
2022-08-20T12:36:08.933Z,35.00
2022-08-20T12:38:36.424Z,35.08
2022-08-20T12:41:03.769Z,35.10
2022-08-20T12:43:32.461Z,35.16
2022-08-20T12:46:00.840Z,35.17
2022-08-20T12:48:28.988Z,34.88
2022-08-20T12:50:56.391Z,34.85
2022-08-20T12:53:23.480Z,35.15
2022-08-20T12:55:54.139Z,35.33
2022-08-20T12:58:21.175Z,35.38
2022-08-20T13:00:50.677Z,35.52
2022-08-20T13:03:19.155Z,35.31
2022-08-20T13:05:46.203Z,35.29
2022-08-20T13:08:13.789Z,35.43
2022-08-20T13:10:45.342Z,35.25
2022-08-20T13:13:14.565Z,35.35
2022-08-20T13:15:43.069Z,35.29
2022-08-20T13:18:10.099Z,35.34
2022-08-20T13:20:46.849Z,35.29
2022-08-20T13:23:17.470Z,35.44
2022-08-20T13:25:44.395Z,35.62
2022-08-20T13:28:12.400Z,35.55
2022-08-20T13:30:43.239Z,35.24
2022-08-20T13:33:10.722Z,34.97
2022-08-20T13:35:38.958Z,34.93
2022-08-20T13:38:05.970Z,34.93
2022-08-20T13:40:33.093Z,34.78
2022-08-20T13:43:05.982Z,34.79
2022-08-20T13:45:38.137Z,34.75
2022-08-20T13:48:15.502Z,34.92
2022-08-20T13:50:46.971Z,34.69
2022-08-20T13:53:14.861Z,34.46
2022-08-20T13:55:41.775Z,34.56
2022-08-20T13:58:08.856Z,34.51
2022-08-20T14:00:36.663Z,34.65
2022-08-20T14:03:06.253Z,34.56
2022-08-20T14:05:35.980Z,34.62
2022-08-20T14:08:20.858Z,34.63
2022-08-20T14:10:51.605Z,34.23
2022-08-20T14:13:22.813Z,34.34
2022-08-20T14:15:50.564Z,34.20
2022-08-20T14:18:17.873Z,34.33
2022-08-20T14:20:45.887Z,34.28
2022-08-20T14:23:15.590Z,34.34
2022-08-20T14:25:47.416Z,34.46
2022-08-20T14:28:19.332Z,34.28
2022-08-20T14:30:52.691Z,34.24
2022-08-20T14:33:24.973Z,34.30
2022-08-20T14:35:52.705Z,34.37
2022-08-20T14:38:20.407Z,34.12
2022-08-20T14:40:49.669Z,34.22
2022-08-20T14:43:22.530Z,33.95
2022-08-20T14:45:49.544Z,34.14
2022-08-20T14:48:17.228Z,34.16
2022-08-20T14:50:44.536Z,34.05
2022-08-20T14:53:19.671Z,33.67
2022-08-20T17:42:56.989Z,31.67
2022-08-20T17:45:30.851Z,31.53
2022-08-20T17:48:01.085Z,31.43
2022-08-20T17:50:38.539Z,31.14
2022-08-20T17:53:17.842Z,30.85
2022-08-20T17:55:52.530Z,30.88
2022-08-20T17:58:26.987Z,30.82
2022-08-20T18:00:56.360Z,30.71
2022-08-20T18:03:29.270Z,30.60
2022-08-20T18:06:30.453Z,30.57
2022-08-20T18:09:14.817Z,30.41
2022-08-20T18:11:57.235Z,30.16
2022-08-20T18:14:38.297Z,30.24
